Time;durP1;ratioP1;P1;durP2;ratioP2;P2;SDS_P1;SDS_P2;PMS_P1;PMS_P2;Temp;Humidity;BMP_temperature;BMP_pressure;BME280_temperature;BME280_humidity;BME280_pressure;Samples;Min_cycle;Max_cycle;Signal;HPM_P1;HPM_P2
2022/11/20 00:00:29;;;;;;;17.73;9.83;;;4.50;99.90;;;;;;5067378;28;20250;-72
2022/11/20 00:02:55;;;;;;;19.03;10.30;;;4.50;99.90;;;;;;5071875;28;20667;-72
2022/11/20 00:05:20;;;;;;;17.70;8.20;;;4.50;99.90;;;;;;5057130;28;20304;-73
2022/11/20 00:07:46;;;;;;;15.60;9.60;;;4.50;99.90;;;;;;5069312;28;20214;-72
2022/11/20 00:10:12;;;;;;;15.77;8.90;;;4.50;99.90;;;;;;5084854;28;20222;-72
2022/11/20 00:12:38;;;;;;;17.97;10.20;;;4.50;99.90;;;;;;5085155;28;20234;-72
2022/11/20 00:15:04;;;;;;;18.57;9.43;;;4.50;99.90;;;;;;5084610;28;20445;-72
2022/11/20 00:17:30;;;;;;;17.40;9.63;;;4.50;99.90;;;;;;5069488;28;20219;-72
2022/11/20 00:19:55;;;;;;;18.80;9.90;;;4.50;99.90;;;;;;5101456;28;20534;-72
2022/11/20 00:22:22;;;;;;;20.13;9.97;;;4.50;99.90;;;;;;5071913;28;20226;-73
2022/11/20 00:24:47;;;;;;;21.90;10.00;;;4.50;99.90;;;;;;5086047;28;20265;-72
2022/11/20 00:27:13;;;;;;;17.50;8.90;;;4.50;99.90;;;;;;5074491;28;20449;-72
2022/11/20 00:29:38;;;;;;;14.17;7.80;;;4.50;99.90;;;;;;5089308;28;20306;-72
2022/11/20 00:32:04;;;;;;;18.30;9.13;;;4.50;99.90;;;;;;5080216;28;20309;-72
2022/11/20 00:34:30;;;;;;;21.90;10.03;;;4.50;99.90;;;;;;5067542;28;20276;-73
2022/11/20 00:36:55;;;;;;;19.27;10.77;;;4.50;99.90;;;;;;5067902;28;20223;-71
2022/11/20 00:39:21;;;;;;;18.80;9.40;;;4.50;99.90;;;;;;5080751;28;20227;-72
2022/11/20 00:41:47;;;;;;;20.80;10.50;;;4.50;99.90;;;;;;5071616;28;20292;-72
2022/11/20 00:44:12;;;;;;;18.13;10.13;;;4.50;99.90;;;;;;5053299;28;20233;-72
2022/11/20 00:46:38;;;;;;;17.03;9.07;;;4.50;99.90;;;;;;5064614;28;20219;-73
2022/11/20 00:49:03;;;;;;;16.00;9.30;;;4.50;99.90;;;;;;5077150;28;20286;-72
2022/11/20 00:51:29;;;;;;;16.90;10.03;;;4.50;99.90;;;;;;5087177;28;20218;-72
2022/11/20 00:53:56;;;;;;;19.40;10.10;;;4.50;99.90;;;;;;5087904;28;20229;-72
2022/11/20 00:56:22;;;;;;;18.70;10.13;;;4.50;99.90;;;;;;5056362;28;20645;-73
2022/11/20 00:58:49;;;;;;;17.33;9.63;;;4.50;99.90;;;;;;5066084;28;20456;-72
2022/11/20 01:01:20;;;;;;;18.07;9.73;;;4.40;99.90;;;;;;5052497;28;20223;-72
2022/11/20 01:03:49;;;;;;;16.40;9.30;;;4.50;99.90;;;;;;5076505;28;20449;-73
2022/11/20 01:06:26;;;;;;;19.80;9.70;;;4.40;99.90;;;;;;5093736;28;20460;-72
2022/11/20 01:08:54;;;;;;;19.63;10.13;;;4.40;99.90;;;;;;5086620;28;20463;-72
2022/11/20 01:11:31;;;;;;;18.17;8.93;;;4.40;99.90;;;;;;5084728;28;20457;-73
2022/11/20 01:13:58;;;;;;;16.70;9.40;;;4.40;99.90;;;;;;5070277;28;20460;-73
2022/11/20 01:16:33;;;;;;;19.57;9.20;;;4.50;99.90;;;;;;5054283;28;20954;-72
2022/11/20 01:19:01;;;;;;;19.27;9.13;;;4.50;99.90;;;;;;5076363;28;20529;-72
2022/11/20 01:21:30;;;;;;;17.43;9.33;;;4.40;99.90;;;;;;5083375;28;20487;-72
2022/11/20 01:23:56;;;;;;;19.90;9.30;;;4.50;99.90;;;;;;5101834;28;20441;-72
2022/11/20 01:26:24;;;;;;;18.70;10.03;;;4.50;99.90;;;;;;5070703;28;20441;-71
2022/11/20 01:28:50;;;;;;;19.97;10.43;;;4.40;99.90;;;;;;5072447;28;20445;-72
2022/11/20 01:31:25;;;;;;;18.83;9.50;;;4.40;99.90;;;;;;5080123;28;20449;-72
2022/11/20 01:33:54;;;;;;;17.03;9.43;;;4.40;99.90;;;;;;5062702;28;20452;-72
2022/11/20 01:36:23;;;;;;;25.03;10.60;;;4.50;99.90;;;;;;5072232;28;20621;-72
2022/11/20 01:38:53;;;;;;;19.00;9.57;;;4.40;99.90;;;;;;5090842;28;20466;-72
2022/11/20 01:44:04;;;;;;;20.83;8.57;;;4.50;99.90;;;;;;5073013;28;20492;-71
2022/11/20 01:46:33;;;;;;;18.83;10.00;;;4.50;99.90;;;;;;5081559;28;20472;-72
2022/11/20 01:49:05;;;;;;;29.67;12.17;;;4.40;99.90;;;;;;5080723;28;20450;-72
2022/11/20 01:51:33;;;;;;;26.07;10.63;;;4.40;99.90;;;;;;5073381;28;21054;-72
2022/11/20 01:54:04;;;;;;;22.93;11.40;;;4.50;99.90;;;;;;5058557;28;20461;-72
2022/11/20 01:56:33;;;;;;;19.30;9.63;;;4.40;99.90;;;;;;5074306;28;20472;-72
2022/11/20 01:59:01;;;;;;;26.03;11.17;;;4.40;99.90;;;;;;5073904;28;20464;-72
2022/11/20 02:01:27;;;;;;;21.30;11.10;;;4.40;99.90;;;;;;5073806;28;20477;-72
2022/11/20 02:03:54;;;;;;;20.73;10.73;;;4.50;99.90;;;;;;5075718;28;20478;-72
2022/11/20 02:06:25;;;;;;;22.33;11.40;;;4.40;99.90;;;;;;5062845;28;20207;-72
2022/11/20 02:08:52;;;;;;;19.13;10.30;;;4.50;99.90;;;;;;5080003;28;20522;-72
2022/11/20 02:11:19;;;;;;;20.00;11.00;;;4.50;99.90;;;;;;5092010;28;20551;-72
2022/11/20 02:13:45;;;;;;;17.53;10.20;;;4.40;99.90;;;;;;5081481;28;20880;-72
2022/11/20 02:16:19;;;;;;;13.70;8.67;;;4.40;99.90;;;;;;5066855;28;20218;-72
2022/11/20 02:18:46;;;;;;;18.77;10.17;;;4.50;99.90;;;;;;5071546;28;20497;-72
2022/11/20 02:21:21;;;;;;;18.47;9.27;;;4.50;99.90;;;;;;5079494;28;20456;-72
2022/11/20 02:23:55;;;;;;;16.80;8.80;;;4.50;99.90;;;;;;5070832;28;20976;-72
2022/11/20 02:26:22;;;;;;;29.70;10.90;;;4.40;99.90;;;;;;5080112;28;20444;-72
2022/11/20 02:28:49;;;;;;;17.83;10.60;;;4.40;99.90;;;;;;5063541;28;20445;-72
2022/11/20 02:31:15;;;;;;;21.07;11.00;;;4.50;99.90;;;;;;5096820;28;20455;-72
2022/11/20 02:33:40;;;;;;;23.37;11.67;;;4.50;99.90;;;;;;5079084;28;20453;-72
2022/11/20 02:36:11;;;;;;;22.00;11.10;;;4.50;99.90;;;;;;5069506;28;20214;-72
2022/11/20 02:38:37;;;;;;;15.37;8.63;;;4.50;99.90;;;;;;5070878;28;20222;-72
2022/11/20 02:41:02;;;;;;;20.20;10.80;;;4.50;99.90;;;;;;5056276;28;20449;-71
2022/11/20 02:43:28;;;;;;;21.20;9.90;;;4.50;99.90;;;;;;5084882;28;20215;-71
2022/11/20 02:45:53;;;;;;;19.07;10.47;;;4.40;99.90;;;;;;5069846;28;20294;-71
2022/11/20 02:48:19;;;;;;;18.63;9.53;;;4.40;99.90;;;;;;5059257;28;20302;-70
2022/11/20 02:50:45;;;;;;;26.63;11.80;;;4.40;99.90;;;;;;5088070;28;20306;-72
2022/11/20 02:53:10;;;;;;;16.80;10.07;;;4.40;99.90;;;;;;5091166;28;20230;-71
2022/11/20 02:55:36;;;;;;;24.57;11.17;;;4.40;99.90;;;;;;5062979;28;20207;-72
2022/11/20 02:58:02;;;;;;;21.77;10.40;;;4.40;99.90;;;;;;5069698;28;20211;-72
2022/11/20 03:00:27;;;;;;;19.40;10.43;;;4.40;99.90;;;;;;5086583;28;20234;-72
2022/11/20 03:02:53;;;;;;;21.67;10.43;;;4.40;99.90;;;;;;5070476;28;20211;-72
2022/11/20 03:05:19;;;;;;;18.83;9.87;;;4.40;99.90;;;;;;5089430;28;20242;-72
2022/11/20 03:07:44;;;;;;;23.17;10.43;;;4.40;99.90;;;;;;5072075;28;20317;-72
2022/11/20 03:10:10;;;;;;;23.57;11.57;;;4.40;99.90;;;;;;5070488;28;20298;-72
2022/11/20 03:12:36;;;;;;;17.73;8.77;;;4.40;99.90;;;;;;5081670;28;20223;-72
2022/11/20 03:15:01;;;;;;;22.37;10.80;;;4.40;99.90;;;;;;5071039;28;20240;-72
2022/11/20 03:17:27;;;;;;;17.13;9.43;;;4.40;99.90;;;;;;5087225;28;20276;-72
2022/11/20 03:19:53;;;;;;;21.80;10.10;;;4.40;99.90;;;;;;5089164;28;20226;-72
2022/11/20 03:22:18;;;;;;;17.87;10.07;;;4.40;99.90;;;;;;5072435;28;20230;-72
2022/11/20 03:24:44;;;;;;;23.43;11.10;;;4.40;99.90;;;;;;5050431;28;20238;-72
2022/11/20 03:27:09;;;;;;;15.43;8.20;;;4.40;99.90;;;;;;5072424;28;20642;-72
2022/11/20 03:29:35;;;;;;;24.03;10.80;;;4.40;99.90;;;;;;5089150;28;20225;-72
2022/11/20 03:32:01;;;;;;;20.37;10.80;;;4.40;99.90;;;;;;5052193;28;20223;-72
2022/11/20 03:34:27;;;;;;;15.47;9.10;;;4.40;99.90;;;;;;5082326;28;20953;-72
2022/11/20 03:36:52;;;;;;;19.70;9.80;;;4.40;99.90;;;;;;5072856;28;20237;-72
2022/11/20 03:39:18;;;;;;;22.57;10.37;;;4.40;99.90;;;;;;5088041;28;20276;-72
2022/11/20 03:41:44;;;;;;;22.60;10.10;;;4.40;99.90;;;;;;5074850;28;20207;-72
2022/11/20 03:44:11;;;;;;;20.13;10.80;;;4.40;99.90;;;;;;5070303;28;20227;-71
2022/11/20 03:46:37;;;;;;;20.60;10.17;;;4.40;99.90;;;;;;5067512;28;20817;-72
2022/11/20 03:49:03;;;;;;;21.47;10.97;;;4.40;99.90;;;;;;5080107;28;20548;-72
2022/11/20 03:51:34;;;;;;;20.27;11.20;;;4.40;99.90;;;;;;5072268;28;20454;-72
2022/11/20 03:54:03;;;;;;;18.20;10.23;;;4.40;99.90;;;;;;5069092;28;20501;-72
2022/11/20 03:56:31;;;;;;;19.97;10.10;;;4.40;99.90;;;;;;5063808;28;20487;-72
2022/11/20 03:58:57;;;;;;;19.27;9.97;;;4.40;99.90;;;;;;5085346;28;20465;-72
2022/11/20 04:01:25;;;;;;;22.67;9.17;;;4.40;99.90;;;;;;5074421;28;20515;-72
2022/11/20 04:03:55;;;;;;;22.63;11.50;;;4.40;99.90;;;;;;5046860;28;20449;-72
2022/11/20 04:06:36;;;;;;;20.60;10.40;;;4.40;99.90;;;;;;5035709;28;20433;-71
2022/11/20 04:09:02;;;;;;;17.43;10.47;;;4.40;99.90;;;;;;5051559;28;20457;-72
2022/11/20 04:11:30;;;;;;;24.47;10.83;;;4.40;99.90;;;;;;5101397;28;20514;-72
2022/11/20 04:13:58;;;;;;;24.53;10.27;;;4.40;99.90;;;;;;5069356;28;20488;-72
2022/11/20 04:16:25;;;;;;;21.70;10.30;;;4.40;99.90;;;;;;5096711;28;20448;-72
2022/11/20 04:18:53;;;;;;;19.23;10.60;;;4.40;99.90;;;;;;5088192;28;20476;-72
2022/11/20 04:21:18;;;;;;;22.63;11.00;;;4.40;99.90;;;;;;5073791;28;20453;-71
2022/11/20 04:23:44;;;;;;;27.83;11.47;;;4.40;99.90;;;;;;5068578;28;20448;-72
2022/11/20 04:26:11;;;;;;;25.70;12.87;;;4.40;99.90;;;;;;5074042;28;20219;-72
2022/11/20 04:28:38;;;;;;;20.37;10.67;;;4.40;99.90;;;;;;5086848;28;20226;-72
2022/11/20 04:31:09;;;;;;;21.70;11.87;;;4.40;99.90;;;;;;5071223;28;20436;-71
2022/11/20 04:33:36;;;;;;;16.43;8.77;;;4.40;99.90;;;;;;5075786;28;20444;-72
2022/11/20 04:36:11;;;;;;;19.07;8.57;;;4.40;99.90;;;;;;5071754;28;20450;-72
2022/11/20 04:38:37;;;;;;;25.93;11.50;;;4.40;99.90;;;;;;5071874;28;20445;-72
2022/11/20 04:41:05;;;;;;;20.03;10.73;;;4.50;99.90;;;;;;5083134;28;20532;-72
2022/11/20 04:43:32;;;;;;;21.60;11.33;;;4.40;99.90;;;;;;5073848;28;20211;-72
2022/11/20 04:45:59;;;;;;;20.00;10.50;;;4.50;99.90;;;;;;5073152;28;20525;-72
2022/11/20 04:48:29;;;;;;;23.77;10.90;;;4.50;99.90;;;;;;5077963;28;20445;-72
2022/11/20 04:50:55;;;;;;;21.90;10.87;;;4.50;99.90;;;;;;5077664;28;20496;-72
2022/11/20 04:53:21;;;;;;;19.03;9.50;;;4.50;99.90;;;;;;5079255;28;20533;-72
2022/11/20 04:55:47;;;;;;;21.20;10.27;;;4.50;99.90;;;;;;5083042;28;20546;-72
2022/11/20 04:58:13;;;;;;;22.70;11.70;;;4.50;99.90;;;;;;5070891;28;20453;-72
2022/11/20 05:00:39;;;;;;;21.33;11.60;;;4.50;99.90;;;;;;5084634;28;20551;-70
2022/11/20 05:03:05;;;;;;;17.57;9.50;;;4.40;99.90;;;;;;5080282;28;20485;-72
2022/11/20 05:05:31;;;;;;;24.93;11.83;;;4.50;99.90;;;;;;5055334;28;20214;-72
2022/11/20 05:07:57;;;;;;;24.97;10.73;;;4.50;99.90;;;;;;5093906;28;20226;-71
2022/11/20 05:10:24;;;;;;;24.20;11.17;;;4.50;99.90;;;;;;5075577;28;20215;-72
2022/11/20 05:12:49;;;;;;;17.63;9.73;;;4.50;99.90;;;;;;5079642;28;20525;-72
2022/11/20 05:15:15;;;;;;;20.23;9.77;;;4.50;99.90;;;;;;5071309;28;20889;-71
2022/11/20 05:17:41;;;;;;;17.83;9.10;;;4.50;99.90;;;;;;5072690;28;20219;-72
2022/11/20 05:20:07;;;;;;;22.43;9.50;;;4.50;99.90;;;;;;5079635;28;20225;-72
2022/11/20 05:22:33;;;;;;;19.00;10.00;;;4.40;99.90;;;;;;5087932;28;20214;-72
2022/11/20 05:24:58;;;;;;;20.57;10.53;;;4.40;99.90;;;;;;5080333;28;21233;-72
2022/11/20 05:27:24;;;;;;;16.57;9.30;;;4.50;99.90;;;;;;5072736;28;20223;-72
2022/11/20 05:29:50;;;;;;;18.53;10.63;;;4.50;99.90;;;;;;5072272;28;20268;-72
2022/11/20 05:32:15;;;;;;;22.10;9.70;;;4.50;99.90;;;;;;5090365;28;20254;-72
2022/11/20 05:34:41;;;;;;;20.83;9.70;;;4.50;99.90;;;;;;5111303;27;20225;-71
2022/11/20 05:37:06;;;;;;;17.53;9.43;;;4.50;99.90;;;;;;5069776;28;20214;-72
2022/11/20 05:39:32;;;;;;;25.63;11.30;;;4.50;99.90;;;;;;5072111;28;20215;-72
2022/11/20 05:44:42;;;;;;;20.17;10.30;;;4.50;99.90;;;;;;5089902;28;20246;-72
2022/11/20 05:47:07;;;;;;;23.23;10.60;;;4.50;99.90;;;;;;5074355;28;20477;-72
2022/11/20 05:49:33;;;;;;;18.63;9.00;;;4.50;99.90;;;;;;5086339;28;20303;-71
2022/11/20 05:51:59;;;;;;;18.93;10.10;;;4.50;99.90;;;;;;5072775;28;20246;-72
2022/11/20 05:54:24;;;;;;;19.00;9.47;;;4.50;99.90;;;;;;5082355;28;20217;-72
2022/11/20 05:56:50;;;;;;;19.50;9.37;;;4.50;99.90;;;;;;5074123;28;20238;-72
2022/11/20 05:59:15;;;;;;;18.50;9.90;;;4.40;99.90;;;;;;5087337;28;20222;-72
2022/11/20 06:01:42;;;;;;;18.80;10.13;;;4.50;99.90;;;;;;5063365;28;20580;-72
2022/11/20 06:04:07;;;;;;;23.90;9.60;;;4.50;99.90;;;;;;5070531;28;20211;-71
2022/11/20 06:06:33;;;;;;;19.37;8.77;;;4.50;99.90;;;;;;5092426;28;20457;-71
2022/11/20 06:08:59;;;;;;;20.70;10.53;;;4.50;99.90;;;;;;5091129;28;20217;-72
2022/11/20 06:11:25;;;;;;;20.57;9.27;;;4.50;99.90;;;;;;5065734;28;20241;-72
2022/11/20 06:13:51;;;;;;;26.20;14.13;;;4.50;99.90;;;;;;5047003;28;20206;-72
2022/11/20 06:16:18;;;;;;;28.90;15.70;;;4.50;99.90;;;;;;5073276;28;20472;-71
2022/11/20 06:18:45;;;;;;;24.63;11.40;;;4.40;99.90;;;;;;5082815;28;20210;-72
2022/11/20 06:21:16;;;;;;;19.30;10.90;;;4.50;99.90;;;;;;5079637;28;20464;-72
2022/11/20 06:23:42;;;;;;;20.30;11.17;;;4.50;99.90;;;;;;5077177;28;20452;-71
2022/11/20 06:26:14;;;;;;;20.00;10.70;;;4.50;99.90;;;;;;5061828;28;20476;-72
2022/11/20 06:28:40;;;;;;;21.80;11.77;;;4.50;99.90;;;;;;5069321;28;20453;-71
2022/11/20 06:31:07;;;;;;;21.17;12.67;;;4.50;99.90;;;;;;5069860;28;20480;-72
2022/11/20 06:33:33;;;;;;;20.67;10.73;;;4.50;99.90;;;;;;5071193;28;20471;-71
2022/11/20 06:36:00;;;;;;;26.00;11.90;;;4.50;99.90;;;;;;5067096;28;20449;-72
2022/11/20 06:38:27;;;;;;;17.37;10.00;;;4.50;99.90;;;;;;5070979;28;20219;-72
2022/11/20 06:40:53;;;;;;;22.10;10.17;;;4.50;99.90;;;;;;5070089;28;20469;-72
2022/11/20 06:43:19;;;;;;;19.70;9.90;;;4.50;99.90;;;;;;5070080;28;20488;-72
2022/11/20 06:45:44;;;;;;;21.30;10.23;;;4.50;99.90;;;;;;5087527;28;20300;-72
2022/11/20 06:48:10;;;;;;;18.60;10.10;;;4.50;99.90;;;;;;5059759;28;20230;-72
2022/11/20 06:50:39;;;;;;;20.83;10.93;;;4.50;99.90;;;;;;5069869;28;20253;-72
2022/11/20 06:53:05;;;;;;;26.97;11.03;;;4.50;99.90;;;;;;5057983;28;20265;-72
2022/11/20 06:55:31;;;;;;;18.40;9.40;;;4.50;99.90;;;;;;5073740;28;20437;-72
2022/11/20 06:57:58;;;;;;;20.13;10.47;;;4.50;99.90;;;;;;5060790;28;20457;-71
2022/11/20 07:00:24;;;;;;;17.13;9.20;;;4.50;99.90;;;;;;5069669;28;20859;-72
2022/11/20 07:02:49;;;;;;;16.90;10.30;;;4.50;99.90;;;;;;5093352;28;20456;-72
2022/11/20 07:05:17;;;;;;;17.47;9.20;;;4.50;99.90;;;;;;5059524;28;20450;-70
2022/11/20 07:07:42;;;;;;;20.33;10.00;;;4.50;99.90;;;;;;5066618;28;20218;-71
2022/11/20 07:10:09;;;;;;;21.17;9.90;;;4.50;99.90;;;;;;5106418;28;20497;-71
2022/11/20 07:12:34;;;;;;;16.13;9.33;;;4.50;99.90;;;;;;5070077;28;20233;-72
2022/11/20 07:15:00;;;;;;;17.33;8.90;;;4.50;99.90;;;;;;5084083;28;20449;-72
2022/11/20 07:17:26;;;;;;;18.67;9.70;;;4.60;99.90;;;;;;5053138;28;20221;-72
2022/11/20 07:19:51;;;;;;;18.03;9.17;;;4.60;99.90;;;;;;5079125;28;20251;-72
2022/11/20 07:22:17;;;;;;;14.97;8.80;;;4.50;99.90;;;;;;5087632;28;20731;-72
2022/11/20 07:24:43;;;;;;;20.23;10.80;;;4.60;99.90;;;;;;5106523;27;20215;-72
2022/11/20 07:27:08;;;;;;;19.67;10.97;;;4.50;99.90;;;;;;5070914;28;20623;-72
2022/11/20 07:29:34;;;;;;;24.37;11.27;;;4.50;99.90;;;;;;5078310;28;20215;-72
2022/11/20 07:31:59;;;;;;;15.73;9.43;;;4.60;99.90;;;;;;5051670;28;20284;-72
2022/11/20 07:34:25;;;;;;;15.90;8.33;;;4.60;99.90;;;;;;5076298;28;20597;-72
2022/11/20 07:36:51;;;;;;;24.10;12.30;;;4.60;99.90;;;;;;5084912;28;20283;-72
2022/11/20 07:39:16;;;;;;;28.77;14.27;;;4.60;99.90;;;;;;5090413;28;20248;-72
2022/11/20 07:41:42;;;;;;;27.37;13.57;;;4.60;99.90;;;;;;5067248;28;20222;-72
2022/11/20 07:44:08;;;;;;;21.90;12.60;;;4.60;99.90;;;;;;5078433;28;20260;-72
2022/11/20 07:46:33;;;;;;;20.03;10.30;;;4.60;99.90;;;;;;5076252;28;20225;-72
2022/11/20 07:48:59;;;;;;;21.93;11.60;;;4.60;99.90;;;;;;5071566;28;20310;-72
2022/11/20 07:51:25;;;;;;;14.97;9.57;;;4.60;99.90;;;;;;5083918;28;20223;-73
2022/11/20 07:53:54;;;;;;;22.33;11.70;;;4.60;99.90;;;;;;5071262;28;20226;-72
2022/11/20 07:56:20;;;;;;;25.00;11.67;;;4.60;99.90;;;;;;5061764;28;20442;-72
2022/11/20 07:58:45;;;;;;;15.20;9.70;;;4.60;99.90;;;;;;5068840;28;20481;-72
2022/11/20 08:01:11;;;;;;;20.00;10.03;;;4.60;99.90;;;;;;5066818;28;20696;-72
2022/11/20 08:03:39;;;;;;;17.17;9.37;;;4.60;99.90;;;;;;5085839;28;20207;-72
2022/11/20 08:06:05;;;;;;;15.03;9.30;;;4.60;99.90;;;;;;5067670;28;20199;-73
2022/11/20 08:08:31;;;;;;;12.43;7.90;;;4.60;99.90;;;;;;5068847;28;20856;-72
2022/11/20 08:14:11;;;;;;;19.90;10.17;;;4.60;99.90;;;;;;5049278;28;20529;-72
2022/11/20 08:16:27;;;;;;;20.57;9.40;;;4.60;99.90;;;;;;5084429;28;20452;-72
2022/11/20 08:18:53;;;;;;;15.40;7.73;;;4.60;99.90;;;;;;5069431;28;20901;-72
2022/11/20 08:21:19;;;;;;;17.60;9.73;;;4.60;99.90;;;;;;5067488;28;20460;-72
2022/11/20 08:23:45;;;;;;;21.67;9.60;;;4.60;99.90;;;;;;5067842;28;20214;-72
2022/11/20 08:26:10;;;;;;;16.77;9.77;;;4.60;99.90;;;;;;5066832;28;20260;-72
2022/11/20 08:28:36;;;;;;;16.73;9.57;;;4.60;99.90;;;;;;5082151;28;20290;-72
2022/11/20 08:31:03;;;;;;;14.93;8.53;;;4.60;99.90;;;;;;5067739;28;20286;-72
2022/11/20 08:33:29;;;;;;;23.00;10.93;;;4.60;99.90;;;;;;5068943;28;20481;-72
2022/11/20 08:36:00;;;;;;;19.73;9.83;;;4.70;99.90;;;;;;5066699;28;20846;-72
2022/11/20 08:38:25;;;;;;;17.40;9.57;;;4.60;99.90;;;;;;5068400;28;20457;-72
2022/11/20 08:43:35;;;;;;;14.90;9.00;;;4.70;99.90;;;;;;5085170;28;20257;-72
2022/11/20 08:46:01;;;;;;;15.37;9.33;;;4.70;99.90;;;;;;5097893;28;20469;-72
2022/11/20 08:48:26;;;;;;;20.60;10.80;;;4.70;99.90;;;;;;5063103;28;20211;-72
2022/11/20 08:50:52;;;;;;;21.77;9.67;;;4.70;99.90;;;;;;5064576;28;20350;-72
2022/11/20 08:53:18;;;;;;;24.87;14.10;;;4.60;99.90;;;;;;5068665;28;20219;-72
2022/11/20 08:55:43;;;;;;;25.70;13.67;;;4.60;99.90;;;;;;5084511;28;20210;-72
2022/11/20 08:58:09;;;;;;;25.57;13.20;;;4.70;99.90;;;;;;5085537;28;20211;-72
2022/11/20 09:00:34;;;;;;;21.80;9.50;;;4.70;99.90;;;;;;5066729;28;20226;-72
2022/11/20 09:03:00;;;;;;;20.27;9.70;;;4.70;99.90;;;;;;5082217;28;20264;-72
2022/11/20 09:05:27;;;;;;;19.90;9.97;;;4.70;99.90;;;;;;5066900;28;20289;-72
2022/11/20 09:07:56;;;;;;;19.70;9.90;;;4.70;99.90;;;;;;5066298;28;20458;-72
2022/11/20 09:10:21;;;;;;;24.37;10.33;;;4.70;99.90;;;;;;5064262;28;20507;-72
2022/11/20 09:12:51;;;;;;;17.60;9.00;;;4.70;99.90;;;;;;5083258;28;20457;-72
2022/11/20 09:15:17;;;;;;;17.53;9.87;;;4.80;99.90;;;;;;5052318;28;20218;-72
2022/11/20 09:17:53;;;;;;;17.53;9.50;;;4.70;99.90;;;;;;5067547;28;20462;-72
2022/11/20 09:20:20;;;;;;;18.53;8.40;;;4.80;99.90;;;;;;5098759;28;20969;-72
2022/11/20 09:22:45;;;;;;;18.27;7.90;;;4.80;99.90;;;;;;5085409;28;20488;-72
2022/11/20 09:25:11;;;;;;;17.30;9.40;;;4.80;99.90;;;;;;5069261;28;20452;-72
2022/11/20 09:27:36;;;;;;;15.43;8.43;;;4.80;99.90;;;;;;5071225;28;20226;-72
2022/11/20 09:30:04;;;;;;;18.13;8.20;;;4.80;99.90;;;;;;5068652;28;20214;-71
2022/11/20 09:32:30;;;;;;;16.00;9.23;;;4.90;99.90;;;;;;5074458;28;20219;-72
2022/11/20 09:34:55;;;;;;;20.57;10.40;;;4.90;99.90;;;;;;5105386;27;20545;-72
2022/11/20 09:37:21;;;;;;;27.43;13.97;;;4.90;99.90;;;;;;5070401;28;20302;-72
2022/11/20 09:39:46;;;;;;;15.70;10.20;;;4.90;99.90;;;;;;5099802;28;20611;-72
2022/11/20 09:42:15;;;;;;;15.70;8.60;;;4.90;99.90;;;;;;5086983;28;20268;-72
2022/11/20 09:45:18;;;;;;;13.30;6.77;;;4.90;99.90;;;;;;5070270;28;20246;-72
2022/11/20 09:47:43;;;;;;;14.50;6.93;;;4.90;99.90;;;;;;5040335;28;20441;-72
2022/11/20 09:50:31;;;;;;;13.07;7.17;;;4.90;99.90;;;;;;5066702;28;20461;-72
2022/11/20 09:53:02;;;;;;;13.53;7.20;;;4.90;99.90;;;;;;5069543;28;20238;-72
2022/11/20 09:55:30;;;;;;;12.03;6.60;;;4.90;99.90;;;;;;5073226;28;20858;-72
2022/11/20 09:57:58;;;;;;;12.37;6.97;;;4.90;99.90;;;;;;5068287;28;20457;-73
2022/11/20 10:00:25;;;;;;;15.90;7.63;;;4.90;99.90;;;;;;5070070;28;20461;-73
2022/11/20 10:03:21;;;;;;;12.60;8.30;;;5.00;99.90;;;;;;5069427;28;20465;-72
2022/11/20 10:05:51;;;;;;;12.70;7.77;;;5.00;99.90;;;;;;5084471;28;20469;-72
2022/11/20 10:08:32;;;;;;;14.30;7.73;;;5.00;99.90;;;;;;5100450;27;20475;-72
2022/11/20 10:11:04;;;;;;;14.57;8.13;;;5.00;99.90;;;;;;5067201;28;21008;-72
2022/11/20 10:14:08;;;;;;;16.13;7.10;;;5.00;99.90;;;;;;5086736;28;20476;-71
2022/11/20 10:16:52;;;;;;;16.70;7.40;;;5.00;99.90;;;;;;5068963;28;20456;-71
2022/11/20 10:19:29;;;;;;;25.33;11.83;;;5.00;99.90;;;;;;5100600;27;20461;-72
2022/11/20 10:22:35;;;;;;;37.60;22.37;;;5.00;99.90;;;;;;5068068;28;20461;-72
2022/11/20 10:25:14;;;;;;;30.60;20.50;;;5.10;99.90;;;;;;5065895;28;20490;-72
2022/11/20 10:28:11;;;;;;;18.60;10.50;;;5.10;99.90;;;;;;5101104;27;20461;-71
2022/11/20 10:30:45;;;;;;;15.07;8.97;;;5.10;99.90;;;;;;5066812;28;21087;-71
2022/11/20 10:33:19;;;;;;;13.80;9.37;;;5.10;99.90;;;;;;5069312;28;20587;-71
2022/11/20 10:35:55;;;;;;;12.47;7.87;;;5.10;99.90;;;;;;5078408;28;20465;-71
2022/11/20 10:38:30;;;;;;;16.30;9.00;;;5.10;99.90;;;;;;5063778;28;20460;-70
2022/11/20 10:41:24;;;;;;;12.27;6.50;;;5.10;99.90;;;;;;5097523;28;20469;-72
2022/11/20 10:43:47;;;;;;;10.07;7.00;;;5.10;99.90;;;;;;5072184;28;20452;-72
2022/11/20 10:46:22;;;;;;;15.20;8.67;;;5.10;99.90;;;;;;5069369;28;20457;-71
2022/11/20 10:48:49;;;;;;;17.40;10.13;;;5.10;99.90;;;;;;5065456;28;20453;-71
2022/11/20 10:51:53;;;;;;;14.10;8.50;;;5.10;99.90;;;;;;5066990;28;20466;-71
2022/11/20 10:54:45;;;;;;;21.57;9.37;;;5.20;99.90;;;;;;5026501;28;20454;-71
2022/11/20 10:57:16;;;;;;;14.30;8.07;;;5.20;99.90;;;;;;5026194;28;20965;-72
2022/11/20 11:00:20;;;;;;;18.93;9.50;;;5.20;99.90;;;;;;5080135;28;20535;-71
2022/11/20 11:02:54;;;;;;;16.53;7.77;;;5.20;99.90;;;;;;5048411;28;21005;-72
2022/11/20 11:05:20;;;;;;;15.13;9.43;;;5.20;99.90;;;;;;5067029;28;20989;-71
2022/11/20 11:07:53;;;;;;;13.03;8.67;;;5.20;99.90;;;;;;5080432;28;20495;-72
2022/11/20 11:10:20;;;;;;;11.20;7.77;;;5.30;99.90;;;;;;5067079;28;20250;-72
2022/11/20 11:12:50;;;;;;;14.47;8.33;;;5.30;99.90;;;;;;5050304;28;20983;-72
2022/11/20 11:15:36;;;;;;;13.70;7.73;;;5.30;99.90;;;;;;5084603;28;20488;-71
2022/11/20 11:18:01;;;;;;;14.00;8.63;;;5.30;99.90;;;;;;5066464;28;20450;-72
2022/11/20 11:20:27;;;;;;;14.70;7.93;;;5.30;99.90;;;;;;5053596;28;20604;-72
2022/11/20 11:22:55;;;;;;;13.00;7.80;;;5.30;99.90;;;;;;5082502;28;20219;-72
2022/11/20 11:25:30;;;;;;;10.50;6.80;;;5.40;99.90;;;;;;5069071;28;20218;-71
2022/11/20 11:28:20;;;;;;;14.57;8.13;;;5.40;99.90;;;;;;5081931;28;20461;-71
2022/11/20 11:30:48;;;;;;;10.30;6.53;;;5.40;99.90;;;;;;5064595;28;20472;-72
2022/11/20 11:33:25;;;;;;;12.50;7.20;;;5.40;99.90;;;;;;5067187;28;20450;-71
2022/11/20 11:36:03;;;;;;;11.43;7.07;;;5.50;99.90;;;;;;5101208;27;20514;-72
2022/11/20 11:38:36;;;;;;;14.27;8.00;;;5.50;99.90;;;;;;5085544;28;20453;-72
2022/11/20 11:41:04;;;;;;;16.60;8.60;;;5.50;99.90;;;;;;5062934;28;20470;-72
2022/11/20 11:46:20;;;;;;;16.27;8.23;;;5.50;99.90;;;;;;5066325;28;20453;-72
2022/11/20 11:49:19;;;;;;;18.27;9.30;;;5.60;99.90;;;;;;5101910;28;20488;-72
2022/11/20 11:52:17;;;;;;;26.30;13.00;;;5.60;99.90;;;;;;5024206;28;20554;-72
2022/11/20 11:55:03;;;;;;;20.67;11.77;;;5.60;99.90;;;;;;5065843;28;20477;-72
2022/11/20 11:57:45;;;;;;;20.53;10.30;;;5.60;99.90;;;;;;5100703;27;20491;-72
2022/11/20 12:00:16;;;;;;;13.70;8.77;;;5.60;99.90;;;;;;5098735;27;20457;-71
2022/11/20 12:02:45;;;;;;;18.13;9.67;;;5.70;99.90;;;;;;5066264;28;20469;-71
2022/11/20 12:05:16;;;;;;;12.70;7.47;;;5.70;99.90;;;;;;5067753;28;20445;-72
2022/11/20 12:08:02;;;;;;;13.97;7.67;;;5.70;99.90;;;;;;5066763;28;20466;-71
2022/11/20 12:10:46;;;;;;;18.97;8.77;;;5.70;99.90;;;;;;5083287;28;20449;-72
2022/11/20 12:13:44;;;;;;;13.03;7.13;;;5.70;99.90;;;;;;5080853;28;20460;-71
2022/11/20 12:16:14;;;;;;;15.13;8.60;;;5.80;99.90;;;;;;5082733;28;20476;-72
2022/11/20 12:18:41;;;;;;;14.00;7.53;;;5.80;99.90;;;;;;5066669;28;20470;-70
2022/11/20 12:21:12;;;;;;;11.70;7.70;;;5.80;99.90;;;;;;5081770;28;20480;-71
2022/11/20 12:24:13;;;;;;;17.83;8.33;;;5.80;99.90;;;;;;5100573;28;20469;-72
2022/11/20 12:27:08;;;;;;;12.77;6.30;;;5.80;99.90;;;;;;4999185;28;20465;-72
2022/11/20 12:29:58;;;;;;;11.63;6.57;;;5.90;99.90;;;;;;5099600;28;20832;-72
2022/11/20 12:32:24;;;;;;;14.80;7.53;;;5.90;99.90;;;;;;5061015;28;20457;-72
2022/11/20 12:34:58;;;;;;;19.40;8.13;;;5.90;99.90;;;;;;5082012;28;20450;-72
2022/11/20 12:37:39;;;;;;;13.93;7.50;;;5.90;99.90;;;;;;5071383;28;20292;-71
2022/11/20 12:40:27;;;;;;;17.03;9.03;;;6.00;99.90;;;;;;5062713;28;20465;-72
2022/11/20 12:46:26;;;;;;;14.27;7.87;;;6.00;99.90;;;;;;5003404;28;20465;-71
2022/11/20 12:49:12;;;;;;;11.17;7.60;;;6.00;99.90;;;;;;5008033;28;20503;-71
2022/11/20 12:51:55;;;;;;;20.37;9.13;;;6.10;99.90;;;;;;5057473;28;20463;-71
2022/11/20 12:54:36;;;;;;;17.13;8.53;;;6.10;99.90;;;;;;5086561;28;20449;-71
2022/11/20 12:57:18;;;;;;;19.43;9.53;;;6.10;99.90;;;;;;5072504;28;20446;-70
2022/11/20 12:59:46;;;;;;;19.60;8.93;;;6.10;99.90;;;;;;5065408;28;20474;-71
2022/11/20 13:02:37;;;;;;;17.57;8.90;;;6.10;99.90;;;;;;5078582;28;20976;-71
2022/11/20 13:05:44;;;;;;;17.20;9.70;;;6.20;99.90;;;;;;5086917;28;20461;-70
2022/11/20 13:08:38;;;;;;;15.63;8.73;;;6.20;99.90;;;;;;5070148;28;20457;-72
2022/11/20 13:11:18;;;;;;;16.67;9.37;;;6.20;99.90;;;;;;5070996;28;20457;-71
2022/11/20 13:13:51;;;;;;;12.83;7.87;;;6.20;99.90;;;;;;5052882;28;20461;-72